Nearby METAR Reports

 

LFLC - Clermont/Aulnat, France
Distance from station: S 1mi, 2km
Updated: Wed, 21-Aug-2019 9:30am CEST
Clear
Clear
 Wind from varies
Wind: varies 2 mph , 4 km/h
Temperature: 61°F , 16°C
Dew Point: 50°F , 10°C
Humidity: 68%
Barometer: 30.3 inHg , 1026 hPa
Summary: Clear
Visibility: greater than 7 miles , 10 km
2019/08/21 07:30 LFLC 210730Z AUTO VRB02KT CAVOK 16/10 Q1026 NOSIG
LFMH - St Etienne/Bouth, France
Distance from station: ESE 57mi, 92km
Updated: Wed, 21-Aug-2019 9:30am CEST
Overcast
Overcast
 Wind from varies
Wind: varies 3 mph , 6 km/h
Temperature: 54°F , 12°C
Dew Point: 52°F , 11°C
Humidity: 94%
Barometer: 30.3 inHg , 1026 hPa
Clouds: Overcast
Visibility: 6 miles , 10 km
Cloud details: Overcast 700 ft
2019/08/21 07:30 LFMH 210730Z AUTO VRB03KT 9999 OVC007 12/11 Q1026 BECMG SCT040
 
LFLN - Saint Yan, France
Distance from station: NE 60mi, 96km
Updated: Wed, 21-Aug-2019 9:30am CEST
Partly Cloudy
Partly Cloudy
 Wind from varies
Wind: varies 2 mph , 4 km/h
Temperature: 54°F , 12°C
Dew Point: 54°F , 12°C
Humidity: 100%
Barometer: 30.3 inHg , 1026 hPa
Clouds: Partly Cloudy
Visibility: 6 miles , 10 km
Cloud details: Partly Cloudy 200 ft
2019/08/21 07:30 LFLN 210730Z AUTO VRB02KT 9999 SCT002 12/12 Q1026 NOSIG
LFLW - Aurillac (aut), France
Distance from station: SSW 72mi, 116km
Updated: Wed, 21-Aug-2019 9:00am CEST
Clear
Clear
 Wind from varies
Wind: varies 2 mph , 4 km/h
Temperature: 48°F , 9°C
Dew Point: 48°F , 9°C
Humidity: 100%
Barometer: 30.27 inHg , 1025 hPa
Summary: Clear
Visibility: greater than 7 miles , 10 km
2019/08/21 07:00 LFLW 210700Z AUTO VRB02KT CAVOK 09/09 Q1025 NOSIG
 
LFQG - Nevers/Fourchamb, France
Distance from station: N 84mi, 135km
Updated: Wed, 21-Aug-2019 9:00am CEST
Clear
Clear
 Wind from calm
Wind: Calm
Temperature: 59°F , 15°C
Dew Point: 52°F , 11°C
Humidity: 77%
Barometer: 30.33 inHg , 1027 hPa
Summary: Clear
Visibility: greater than 7 miles , 10 km
2019/08/21 07:00 LFQG 210700Z AUTO 00000KT CAVOK 15/11 Q1027
LFLY - Lyon/Bron, France
Distance from station: E 86mi, 138km
Updated: Wed, 21-Aug-2019 9:30am CEST
Overcast
Overcast
 Wind from varies
Wind: varies 2 mph , 4 km/h
Temperature: 57°F , 14°C
Dew Point: 52°F , 11°C
Humidity: 82%
Barometer: 30.27 inHg , 1025 hPa
Clouds: Overcast
Visibility: 6 miles , 10 km
Cloud details: Overcast 1200 ft
2019/08/21 07:30 LFLY 210730Z AUTO VRB02KT 9999 OVC012 14/11 Q1025 BECMG SCT025
 
LFOA - Avord (fafb), France
Distance from station: NNW 90mi, 145km
Updated: Wed, 21-Aug-2019 9:30am CEST
Clear
Clear
 Wind from varies
Wind: varies 2 mph , 4 km/h
Temperature: 64°F , 18°C
Dew Point: 52°F , 11°C
Humidity: 64%
Barometer: 30.33 inHg , 1027 hPa
Summary: Clear
Visibility: greater than 7 miles , 10 km
2019/08/21 07:30 LFOA 210730Z AUTO VRB02KT CAVOK 18/11 Q1027 NOSIG
LFLL - Lyon/Satolas, France
Distance from station: E 92mi, 147km
Updated: Wed, 21-Aug-2019 9:30am CEST
Overcast
Overcast
 Wind from N
Wind: N 3 mph , 6 km/h
Temperature: 55°F , 13°C
Dew Point: 52°F , 11°C
Humidity: 88%
Barometer: 30.27 inHg , 1025 hPa
Clouds: Overcast
Visibility: 6 miles , 10 km
Cloud details: Overcast 900 ft
2019/08/21 07:30 LFLL 210730Z 35003KT 230V040 9999 OVC009 13/11 Q1025 NOSIG
 
LFBL - Limoges/Bellegar, France
Distance from station: W 97mi, 155km
Updated: Wed, 21-Aug-2019 9:30am CEST
Clear
Clear
 Wind from ENE
Wind: ENE 12 mph , 19 km/h
Temperature: 63°F , 17°C
Dew Point: 48°F , 9°C
Humidity: 59%
Barometer: 30.3 inHg , 1026 hPa
Summary: Clear
Visibility: greater than 7 miles , 10 km
2019/08/21 07:30 LFBL 210730Z AUTO 07010KT CAVOK 17/09 Q1026 NOSIG
LFSL - Brive/Souillac, France
Distance from station: WSW 97mi, 156km
Updated: Wed, 21-Aug-2019 9:30am CEST
Clear
Clear
 Wind from NNE
Wind: NNE 7 mph , 11 km/h
Temperature: 61°F , 16°C
Dew Point: 48°F , 9°C
Humidity: 63%
Barometer: 30.24 inHg , 1024 hPa
Summary: Clear
Visibility: greater than 7 miles , 10 km
2019/08/21 07:30 LFSL 210730Z AUTO 02006KT 350V080 CAVOK 16/09 Q1024 NOSIG
 
LFLX - Chateauroux/Deol, France
Distance from station: NW 101mi, 163km
Updated: Wed, 21-Aug-2019 9:30am CEST
Clear
Clear
 Wind from E
Wind: E 5 mph , 7 km/h
Temperature: 61°F , 16°C
Dew Point: 50°F , 10°C
Humidity: 68%
Barometer: 30.33 inHg , 1027 hPa
Summary: Clear
Visibility: greater than 7 miles , 10 km
2019/08/21 07:30 LFLX 210730Z AUTO 08004KT 050V110 CAVOK 16/10 Q1027 NOSIG
LFCR - Rodez/Marcillac, France
Distance from station: SSW 103mi, 165km
Updated: Wed, 21-Aug-2019 9:30am CEST
Clear
Clear
 Wind from varies
Wind: varies 1 mph , 2 km/h
Temperature: 57°F , 14°C
Dew Point: 48°F , 9°C
Humidity: 72%
Barometer: 30.24 inHg , 1024 hPa
Summary: Clear
Visibility: greater than 7 miles , 10 km
2019/08/21 07:30 LFCR 210730Z AUTO VRB01KT CAVOK 14/09 Q1024 NOSIG
 
LFLU - Valence-Chabeuil, France
Distance from station: ESE 107mi, 172km
Updated: Wed, 21-Aug-2019 9:30am CEST
Clear
Clear
 Wind from N
Wind: N 18 mph , 30 km/h
Temperature: 61°F , 16°C
Dew Point: 54°F , 12°C
Humidity: 77%
Barometer: 30.21 inHg , 1023 hPa
Summary: Clear
Visibility: greater than 7 miles , 10 km
2019/08/21 07:30 LFLU 210730Z AUTO 35016KT CAVOK 16/12 Q1023
LFLS - Grenoble/St. Geo, France
Distance from station: ESE 108mi, 174km
Updated: Wed, 21-Aug-2019 9:30am CEST
Mostly Cloudy
Mostly Cloudy
 Wind from NE
Wind: NE 8 mph , 13 km/h
Temperature: 59°F , 15°C
Dew Point: 54°F , 12°C
Humidity: 82%
Barometer: 30.24 inHg , 1024 hPa
Clouds: Mostly Cloudy
Visibility: 6 miles , 10 km
Cloud details: Mostly Cloudy 2700 ft
2019/08/21 07:30 LFLS 210730Z AUTO 05007KT 020V080 9999 BKN027 15/12 Q1024 NOSIG
 
LFYR - Romorantin/Pruni, France
Distance from station: NW 128mi, 205km
Updated: Wed, 21-Aug-2019 9:30am CEST
Clear
Clear
 Wind from ENE
Wind: ENE 3 mph , 6 km/h
Temperature: 61°F , 16°C
Dew Point: 52°F , 11°C
Humidity: 72%
Barometer: 30.33 inHg , 1027 hPa
Summary: Clear
Visibility: greater than 7 miles , 10 km
2019/08/21 07:30 LFYR 210730Z AUTO 07003KT 040V120 CAVOK 16/11 Q1027 NOSIG
LFLB - Chambery/Aix Bai, France
Distance from station: E 131mi, 210km
Updated: Wed, 21-Aug-2019 9:30am CEST
Overcast
Overcast
 Wind from N
Wind: N 14 mph , 22 km/h
Temperature: 61°F , 16°C
Dew Point: 54°F , 12°C
Humidity: 77%
Barometer: 30.24 inHg , 1024 hPa
Clouds: Overcast
Visibility: 6 miles , 10 km
Cloud details: Overcast 2800 ft
2019/08/21 07:30 LFLB 210730Z AUTO 01012KT 9999 OVC028 16/12 Q1024 NOSIG
 
LFSD - Dijon/Longvic(Fa, France
Distance from station: NE 136mi, 219km
Updated: Wed, 21-Aug-2019 9:30am CEST
Clear
Clear
 Wind from NNE
Wind: NNE 12 mph , 19 km/h
Temperature: 59°F , 15°C
Dew Point: 54°F , 12°C
Humidity: 82%
Barometer: 30.33 inHg , 1027 hPa
Summary: Clear
Visibility: greater than 7 miles , 10 km
2019/08/21 07:30 LFSD 210730Z AUTO 02010KT CAVOK 15/12 Q1027
LFGJ - Dole Tavaux, France
Distance from station: NE 139mi, 223km
Updated: Wed, 21-Aug-2019 9:30am CEST
Clear
Clear
 Wind from N
Wind: N 13 mph , 20 km/h
Temperature: 59°F , 15°C
Dew Point: 55°F , 13°C
Humidity: 88%
Barometer: 30.3 inHg , 1026 hPa
Summary: Clear
Visibility: greater than 7 miles , 10 km
2019/08/21 07:30 LFGJ 210730Z AUTO 01011KT CAVOK 15/13 Q1026 NOSIG
 
LFLP - Annecy/Meythet, France
Distance from station: E 141mi, 226km
Updated: Wed, 21-Aug-2019 9:30am CEST
Overcast
Overcast
 Wind from N
Wind: N 7 mph , 11 km/h
Temperature: 57°F , 14°C
Dew Point: 52°F , 11°C
Humidity: 82%
Barometer: 30.27 inHg , 1025 hPa
Clouds: Overcast
Visibility: 6 miles , 10 km
Cloud details: Overcast 2100 ft
2019/08/21 07:30 LFLP 210730Z AUTO 01006KT 9999 OVC021 14/11 Q1025 NOSIG
LFBU - Brie Champniers, France
Distance from station: W 142mi, 229km
Updated: Wed, 21-Aug-2019 9:30am CEST
Clear
Clear
 Wind from ENE
Wind: ENE 3 mph , 6 km/h
Temperature: 64°F , 18°C
Dew Point: 50°F , 10°C
Humidity: 60%
Barometer: 30.27 inHg , 1025 hPa
Summary: Clear
Visibility: greater than 7 miles , 10 km
2019/08/21 07:30 LFBU 210730Z AUTO 06003KT 030V090 CAVOK 18/10 Q1025 NOSIG

Metar display script from Saratoga-Weather.org